Time;durP1;ratioP1;P1;durP2;ratioP2;P2;SDS_P1;SDS_P2;PMS_P1;PMS_P2;Temp;Humidity;BMP_temperature;BMP_pressure;BME280_temperature;BME280_humidity;BME280_pressure;Samples;Min_cycle;Max_cycle;Signal;HPM_P1;HPM_P2
2023/09/27 00:00:30;;;;;;;0.70;0.70;;;;;;;;;;5073886;28;20111;-73
2023/09/27 00:02:57;;;;;;;0.93;0.70;;;;;;;;;;5073758;28;20052;-73
2023/09/27 00:05:24;;;;;;;1.40;0.93;;;;;;;;;;5073852;28;20031;-73
2023/09/27 00:07:51;;;;;;;1.02;0.88;;;;;;;;;;5073793;28;20277;-73
2023/09/27 00:10:17;;;;;;;0.73;0.68;;;;;;;;;;5073641;28;20021;-73
2023/09/27 00:12:44;;;;;;;0.73;0.70;;;;;;;;;;5073663;28;20119;-73
2023/09/27 00:15:11;;;;;;;0.82;0.82;;;;;;;;;;5074191;28;20031;-74
2023/09/27 00:17:37;;;;;;;1.25;1.00;;;;;;;;;;5073667;28;20036;-74
2023/09/27 00:20:05;;;;;;;0.95;0.80;;;;;;;;;;5073554;28;20078;-73
2023/09/27 00:22:32;;;;;;;1.20;0.77;;;;;;;;;;5073403;28;20101;-75
2023/09/27 00:24:59;;;;;;;1.25;1.00;;;22.20;71.10;;;;;;5073345;28;20047;-74
2023/09/27 00:27:26;;;;;;;1.13;1.00;;;;;;;;;;5073323;28;20056;-75
2023/09/27 00:29:52;;;;;;;1.00;0.88;;;;;;;;;;5055192;28;20028;-74
2023/09/27 00:32:18;;;;;;;1.17;0.77;;;;;;;;;;5072839;28;20048;-74
2023/09/27 00:34:44;;;;;;;0.73;0.70;;;;;;;;;;5073120;28;20021;-75
2023/09/27 00:37:10;;;;;;;1.10;0.70;;;;;;;;;;5073184;28;20033;-74
2023/09/27 00:39:36;;;;;;;0.93;0.80;;;;;;;;;;5072982;28;20028;-74
2023/09/27 00:42:03;;;;;;;0.90;0.70;;;;;;;;;;5073317;28;20047;-74
2023/09/27 00:44:28;;;;;;;1.15;0.80;;;;;;;;;;5072976;28;20095;-74
2023/09/27 00:46:54;;;;;;;0.98;0.80;;;;;;;;;;5072862;28;20035;-72
2023/09/27 00:49:21;;;;;;;1.15;0.90;;;;;;;;;;5073129;28;20030;-73
2023/09/27 00:51:47;;;;;;;1.35;0.88;;;;;;;;;;5072793;28;20066;-73
2023/09/27 00:54:13;;;;;;;1.10;0.80;;;;;;;;;;5072769;28;20069;-73
2023/09/27 00:56:40;;;;;;;0.95;0.85;;;22.10;69.40;;;;;;5072672;28;20025;-72
2023/09/27 00:59:07;;;;;;;1.85;1.05;;;22.10;68.60;;;;;;5072562;28;20020;-72
2023/09/27 01:01:33;;;;;;;1.17;1.08;;;;;;;;;;5072943;28;20482;-73
2023/09/27 01:03:59;;;;;;;1.08;0.95;;;;;;;;;;5072456;28;20115;-73
2023/09/27 01:06:25;;;;;;;0.75;0.75;;;22.00;70.30;;;;;;5072429;28;20051;-73
2023/09/27 01:08:51;;;;;;;1.38;0.80;;;;;;;;;;5072461;28;20024;-72
2023/09/27 01:11:18;;;;;;;1.20;0.77;;;;;;;;;;5072408;28;20512;-73
2023/09/27 01:13:45;;;;;;;0.75;0.75;;;22.10;71.30;;;;;;5072213;28;20123;-73
2023/09/27 01:16:11;;;;;;;0.80;0.80;;;;;;;;;;5072321;28;20475;-73
2023/09/27 01:18:37;;;;;;;0.80;0.70;;;;;;;;;;5072071;28;20111;-73
2023/09/27 01:21:03;;;;;;;0.93;0.77;;;;;;;;;;5072087;28;20027;-73
2023/09/27 01:23:29;;;;;;;1.05;0.75;;;;;;;;;;5072488;28;20327;-73
2023/09/27 01:25:59;;;;;;;1.55;0.80;;;21.90;65.70;;;;;;5072058;28;20133;-73
2023/09/27 01:28:26;;;;;;;;;;;21.90;72.00;;;;;;5073013;28;20027;-73
2023/09/27 01:30:51;;;;;;;1.30;1.13;;;;;;;;;;5071873;28;19904;-73
2023/09/27 01:33:17;;;;;;;1.17;0.80;;;;;;;;;;5072142;28;20043;-73
2023/09/27 01:35:44;;;;;;;1.63;0.88;;;21.90;69.50;;;;;;5071934;28;20336;-73
2023/09/27 01:38:11;;;;;;;0.80;0.80;;;21.90;71.30;;;;;;5071838;28;20031;-72
2023/09/27 01:40:41;;;;;;;0.77;0.77;;;22.00;71.50;;;;;;5071735;28;20020;-72
2023/09/27 01:43:08;;;;;;;1.13;0.93;;;;;;;;;;5071395;28;20021;-72
2023/09/27 01:45:34;;;;;;;1.02;0.90;;;;;;;;;;5071699;28;20031;-72
2023/09/27 01:48:01;;;;;;;1.25;0.90;;;21.90;71.40;;;;;;5071726;28;20017;-72
2023/09/27 01:50:28;;;;;;;1.00;0.90;;;21.90;70.90;;;;;;5071833;28;20032;-72
2023/09/27 01:52:56;;;;;;;1.35;1.20;;;22.00;71.60;;;;;;5072007;28;20450;-73
2023/09/27 01:55:22;;;;;;;1.88;0.90;;;;;;;;;;5072162;28;20412;-74
2023/09/27 01:57:48;;;;;;;1.25;1.00;;;;;;;;;;5072243;28;20437;-74
2023/09/27 02:00:15;;;;;;;1.10;0.93;;;21.90;71.30;;;;;;5071775;28;20025;-74
2023/09/27 02:02:48;;;;;;;0.93;0.75;;;21.90;71.50;;;;;;5071507;28;20052;-74
2023/09/27 02:05:14;;;;;;;1.15;1.00;;;;;;;;;;5071703;28;20094;-74
2023/09/27 02:07:40;;;;;;;0.73;0.70;;;;;;;;;;5071492;28;20402;-74
2023/09/27 02:10:10;;;;;;;0.68;0.65;;;20.00;70.20;;;;;;5071604;28;20103;-74
2023/09/27 02:12:37;;;;;;;1.08;0.85;;;21.90;69.30;;;;;;5071781;28;20040;-74
2023/09/27 02:15:07;;;;;;;0.70;0.70;;;21.80;71.40;;;;;;5071519;28;20090;-74
2023/09/27 02:17:33;;;;;;;1.10;1.00;;;;;;;;;;5071820;28;20123;-74
2023/09/27 02:19:59;;;;;;;1.20;0.88;;;;;;;;;;5071265;28;20059;-74
2023/09/27 02:22:25;;;;;;;1.00;0.90;;;;;;;;;;5071476;28;20086;-74
2023/09/27 02:24:51;;;;;;;1.15;0.70;;;;;;;;;;5071270;28;20044;-74
2023/09/27 02:27:23;;;;;;;1.02;0.80;;;;;;;;;;5072110;28;20040;-74
2023/09/27 02:29:49;;;;;;;1.20;1.00;;;21.80;68.50;;;;;;5071352;28;20027;-74
2023/09/27 02:32:17;;;;;;;0.70;0.70;;;;;;;;;;5071493;28;20036;-74
2023/09/27 02:34:44;;;;;;;1.80;0.90;;;;;;;;;;5071615;28;20028;-74
2023/09/27 02:37:11;;;;;;;0.80;0.68;;;;;;;;;;5071414;28;20040;-74
2023/09/27 02:39:38;;;;;;;0.85;0.85;;;;;;;;;;5071421;28;20478;-74
2023/09/27 02:42:04;;;;;;;1.10;1.00;;;;;;;;;;5071484;28;20039;-74
2023/09/27 02:44:31;;;;;;;1.35;0.98;;;;;;;;;;5071526;28;20099;-74
2023/09/27 02:46:57;;;;;;;0.75;0.75;;;;;;;;;;5071046;28;20597;-74
2023/09/27 02:49:24;;;;;;;1.13;1.00;;;;;;;;;;5071079;28;20116;-74
2023/09/27 02:51:52;;;;;;;0.80;0.70;;;;;;;;;;5071160;28;20107;-74
2023/09/27 02:54:19;;;;;;;1.00;0.90;;;;;;;;;;5071463;28;20036;-74
2023/09/27 02:56:46;;;;;;;1.20;1.08;;;;;;;;;;5075362;28;20453;-74
2023/09/27 02:59:12;;;;;;;0.88;0.77;;;;;;;;;;5075178;28;20066;-74
2023/09/27 03:01:40;;;;;;;1.38;0.90;;;;;;;;;;5074831;28;20028;-74
2023/09/27 03:04:11;;;;;;;0.70;0.70;;;21.60;65.60;;;;;;5074568;28;20052;-74
2023/09/27 03:06:41;;;;;;;1.13;1.02;;;21.60;65.70;;;;;;5075317;28;20069;-74
2023/09/27 03:09:08;;;;;;;0.93;0.75;;;21.60;71.50;;;;;;5074986;28;20101;-74
2023/09/27 03:11:36;;;;;;;1.00;0.85;;;;;;;;;;5074590;28;20066;-73
2023/09/27 03:14:02;;;;;;;1.92;0.95;;;;;;;;;;5074862;28;20079;-74
2023/09/27 03:16:29;;;;;;;1.40;0.68;;;;;;;;;;5074808;28;20021;-74
2023/09/27 03:18:55;;;;;;;0.98;0.73;;;;;;;;;;5074790;28;20024;-74
2023/09/27 03:21:22;;;;;;;0.70;0.60;;;;;;;;;;5074761;28;20054;-73
2023/09/27 03:23:48;;;;;;;0.85;0.80;;;;;;;;;;5075001;28;20024;-73
2023/09/27 03:26:14;;;;;;;1.88;1.10;;;;;;;;;;5074271;28;20506;-73
2023/09/27 03:28:40;;;;;;;1.15;1.05;;;;;;;;;;5074260;28;20032;-73
2023/09/27 03:31:06;;;;;;;1.10;0.88;;;;;;;;;;5074092;28;20052;-74
2023/09/27 03:33:32;;;;;;;0.80;0.80;;;;;;;;;;5074195;28;20044;-73
2023/09/27 03:36:02;;;;;;;1.38;0.90;;;21.10;71.20;;;;;;5074197;28;20025;-74
2023/09/27 03:38:28;;;;;;;0.95;0.77;;;;;;;;;;5074447;28;20395;-73
2023/09/27 03:40:54;;;;;;;1.00;0.85;;;;;;;;;;5074068;28;20497;-74
2023/09/27 03:43:20;;;;;;;0.90;0.80;;;;;;;;;;5073916;28;20087;-73
2023/09/27 03:45:46;;;;;;;0.80;0.80;;;;;;;;;;5074038;28;20028;-73
2023/09/27 03:48:12;;;;;;;0.70;0.70;;;;;;;;;;5074099;28;20033;-73
2023/09/27 03:50:38;;;;;;;1.45;1.00;;;;;;;;;;5073867;28;20032;-73
2023/09/27 03:53:04;;;;;;;1.13;0.88;;;;;;;;;;5074373;28;20071;-74
2023/09/27 03:55:30;;;;;;;0.70;0.70;;;;;;;;;;5073664;28;20024;-74
2023/09/27 03:57:56;;;;;;;0.90;0.70;;;;;;;;;;5073766;28;20317;-74
2023/09/27 04:00:22;;;;;;;1.05;0.73;;;;;;;;;;5073866;28;20425;-73
2023/09/27 04:02:49;;;;;;;1.27;0.80;;;;;;;;;;5073575;28;20173;-74
2023/09/27 04:05:17;;;;;;;1.02;0.70;;;;;;;;;;5073711;28;20020;-74
2023/09/27 04:07:43;;;;;;;1.10;0.95;;;;;;;;;;5072929;28;20096;-74
2023/09/27 04:10:09;;;;;;;1.27;0.80;;;;;;;;;;5073782;28;20020;-74
2023/09/27 04:12:36;;;;;;;0.90;0.90;;;;;;;;;;5073481;28;20041;-73
2023/09/27 04:15:06;;;;;;;0.95;0.75;;;;;;;;;;5073531;28;20017;-73
2023/09/27 04:17:32;;;;;;;0.95;0.73;;;;;;;;;;5073447;28;20028;-73
2023/09/27 04:19:58;;;;;;;0.80;0.80;;;;;;;;;;5074238;28;20443;-74
2023/09/27 04:22:24;;;;;;;1.20;1.10;;;;;;;;;;5073296;28;20055;-73
2023/09/27 04:24:50;;;;;;;1.10;1.00;;;;;;;;;;5073336;28;20028;-73
2023/09/27 04:27:16;;;;;;;0.88;0.80;;;;;;;;;;5073262;28;20158;-73
2023/09/27 04:29:42;;;;;;;0.88;0.70;;;;;;;;;;5055170;28;20177;-73
2023/09/27 04:32:09;;;;;;;1.00;0.70;;;;;;;;;;5073295;28;20472;-73
2023/09/27 04:34:35;;;;;;;1.17;0.90;;;;;;;;;;5073095;28;20362;-73
2023/09/27 04:37:02;;;;;;;1.13;0.70;;;;;;;;;;5073043;28;20111;-74
2023/09/27 04:39:31;;;;;;;0.60;0.55;;;21.40;69.90;;;;;;5072949;28;20104;-74
2023/09/27 04:41:57;;;;;;;1.10;0.90;;;;;;;;;;5072972;28;20031;-73
2023/09/27 04:44:24;;;;;;;0.88;0.77;;;;;;;;;;5073307;28;20056;-74
2023/09/27 04:46:50;;;;;;;1.00;0.85;;;;;;;;;;5073004;28;20020;-73
2023/09/27 04:49:16;;;;;;;1.30;1.20;;;;;;;;;;5073466;28;20103;-73
2023/09/27 04:51:42;;;;;;;1.08;0.88;;;;;;;;;;5072808;28;20197;-74
2023/09/27 04:54:08;;;;;;;1.02;0.80;;;;;;;;;;5072791;28;20028;-73
2023/09/27 04:56:34;;;;;;;0.80;0.80;;;;;;;;;;5074160;28;20067;-74
2023/09/27 04:59:05;;;;;;;0.88;0.80;;;21.30;71.40;;;;;;5076016;28;20024;-76
2023/09/27 05:01:31;;;;;;;1.00;0.90;;;;;;;;;;5072538;28;20039;-73
2023/09/27 05:03:57;;;;;;;0.93;0.82;;;21.30;71.50;;;;;;5072498;28;20115;-74
2023/09/27 05:06:24;;;;;;;0.93;0.80;;;;;;;;;;5072521;28;20058;-76
2023/09/27 05:08:50;;;;;;;1.13;1.00;;;;;;;;;;5072588;28;20412;-75
2023/09/27 05:11:18;;;;;;;1.17;1.02;;;;;;;;;;5072473;28;20115;-75
2023/09/27 05:13:45;;;;;;;1.27;1.00;;;;;;;;;;5072560;28;20064;-75
2023/09/27 05:16:11;;;;;;;1.00;0.90;;;;;;;;;;5072450;28;20024;-75
2023/09/27 05:18:37;;;;;;;1.20;0.68;;;;;;;;;;5071495;28;20036;-74
2023/09/27 05:21:06;;;;;;;0.80;0.80;;;21.30;65.90;;;;;;5072494;28;20040;-73
2023/09/27 05:23:32;;;;;;;0.93;0.88;;;;;;;;;;5072465;28;20025;-74
2023/09/27 05:25:59;;;;;;;0.90;0.85;;;;;;;;;;5072325;28;20047;-76
2023/09/27 05:28:25;;;;;;;1.10;1.00;;;;;;;;;;5072383;28;20368;-76
2023/09/27 05:30:52;;;;;;;1.02;0.77;;;;;;;;;;5072479;28;20508;-75
2023/09/27 05:33:19;;;;;;;0.80;0.80;;;;;;;;;;5072149;28;20075;-74
2023/09/27 05:35:50;;;;;;;1.50;1.00;;;;;;;;;;5072653;28;20025;-74
2023/09/27 05:38:16;;;;;;;2.00;0.82;;;21.20;71.00;;;;;;5072291;28;20104;-75
2023/09/27 05:40:43;;;;;;;1.67;1.00;;;;;;;;;;5072178;28;20025;-76
2023/09/27 05:43:10;;;;;;;1.10;0.80;;;;;;;;;;5072357;28;20032;-76
2023/09/27 05:45:37;;;;;;;0.90;0.90;;;;;;;;;;5071880;28;20048;-75
2023/09/27 05:48:05;;;;;;;0.77;0.77;;;;;;;;;;5071994;28;20118;-75
2023/09/27 05:50:32;;;;;;;1.10;0.90;;;;;;;;;;5072270;28;20031;-75
2023/09/27 05:52:59;;;;;;;1.10;1.00;;;;;;;;;;5071744;28;20491;-75
2023/09/27 05:55:26;;;;;;;0.82;0.82;;;;;;;;;;5072191;28;20028;-75
2023/09/27 05:57:54;;;;;;;1.30;1.20;;;;;;;;;;5071786;28;20509;-74
2023/09/27 06:00:26;;;;;;;1.15;1.02;;;;;;;;;;5072135;28;20035;-75
2023/09/27 06:02:53;;;;;;;0.82;0.82;;;;;;;;;;5071711;28;20056;-77
2023/09/27 06:05:20;;;;;;;0.80;0.70;;;;;;;;;;5072151;28;20128;-77
2023/09/27 06:07:46;;;;;;;1.20;1.10;;;;;;;;;;5072125;28;20035;-76
2023/09/27 06:10:13;;;;;;;0.80;0.80;;;;;;;;;;5072037;28;20020;-77
2023/09/27 06:12:39;;;;;;;1.15;0.98;;;;;;;;;;5071897;28;20056;-76
2023/09/27 06:15:06;;;;;;;1.05;0.88;;;;;;;;;;5071913;28;20039;-76
2023/09/27 06:17:32;;;;;;;1.10;1.00;;;;;;;;;;5071707;28;20055;-77
2023/09/27 06:19:59;;;;;;;0.88;0.88;;;;;;;;;;5071630;28;20024;-77
2023/09/27 06:22:27;;;;;;;2.00;1.10;;;;;;;;;;5072197;28;20025;-77
2023/09/27 06:24:53;;;;;;;0.80;0.70;;;;;;;;;;5071799;28;20386;-74
2023/09/27 06:27:19;;;;;;;1.77;1.00;;;;;;;;;;5071418;28;20024;-77
2023/09/27 06:29:46;;;;;;;1.25;1.00;;;;;;;;;;5071177;28;20070;-77
2023/09/27 06:32:13;;;;;;;1.38;1.00;;;;;;;;;;5071684;28;20110;-76
2023/09/27 06:34:39;;;;;;;1.00;0.90;;;;;;;;;;5071846;28;20031;-76
2023/09/27 06:37:07;;;;;;;1.60;1.05;;;;;;;;;;5074427;28;20108;-75
2023/09/27 06:39:33;;;;;;;1.17;0.82;;;;;;;;;;5073295;28;20094;-76
2023/09/27 06:42:00;;;;;;;1.10;1.00;;;;;;;;;;5071586;28;20025;-76
2023/09/27 06:44:26;;;;;;;1.23;1.10;;;;;;;;;;5053776;28;20356;-77
2023/09/27 06:46:52;;;;;;;1.05;0.95;;;;;;;;;;5071205;28;20052;-77
2023/09/27 06:49:19;;;;;;;1.33;1.10;;;;;;;;;;5071544;28;20398;-73
2023/09/27 06:51:45;;;;;;;1.13;0.88;;;;;;;;;;5071566;28;20024;-73
2023/09/27 06:54:12;;;;;;;1.65;1.30;;;;;;;;;;5071114;28;20040;-73
2023/09/27 06:56:39;;;;;;;1.27;1.17;;;;;;;;;;5071280;28;20055;-75
2023/09/27 06:59:05;;;;;;;1.35;0.82;;;21.00;70.60;;;;;;5071228;28;20028;-74
2023/09/27 07:01:32;;;;;;;1.02;0.90;;;;;;;;;;5071484;28;20032;-74
2023/09/27 07:03:58;;;;;;;2.83;1.00;;;;;;;;;;5070951;28;20052;-75
2023/09/27 07:06:25;;;;;;;1.52;1.33;;;;;;;;;;5071070;28;20029;-76
2023/09/27 07:08:53;;;;;;;3.58;1.00;;;;;;;;;;5071023;28;20033;-76
2023/09/27 07:11:19;;;;;;;1.02;0.90;;;;;;;;;;5070893;28;20035;-76
2023/09/27 07:13:46;;;;;;;0.98;0.93;;;;;;;;;;5071381;28;20048;-77
2023/09/27 07:16:26;;;;;;;0.90;0.80;;;21.10;66.00;;;;;;5070949;28;20036;-74
2023/09/27 07:19:09;;;;;;;1.05;0.95;;;;;;;;;;5070637;28;20052;-74
2023/09/27 07:21:55;;;;;;;1.20;0.85;;;;;;;;;;5070619;28;20497;-74
2023/09/27 07:24:41;;;;;;;0.82;0.80;;;;;;;;;;5070776;28;20032;-74
2023/09/27 07:27:27;;;;;;;1.67;0.93;;;;;;;;;;5070833;28;20031;-73
2023/09/27 07:30:17;;;;;;;1.30;0.90;;;;;;;;;;5070809;28;20092;-74
2023/09/27 07:32:59;;;;;;;1.45;1.08;;;;;;;;;;5069883;28;20048;-74
2023/09/27 07:35:46;;;;;;;1.60;1.10;;;;;;;;;;5070779;28;20403;-74
2023/09/27 07:38:30;;;;;;;1.10;0.90;;;;;;;;;;5070479;28;20064;-74
2023/09/27 07:41:17;;;;;;;1.10;1.00;;;;;;;;;;5070603;28;20035;-75
2023/09/27 07:44:06;;;;;;;3.58;0.90;;;;;;;;;;5074222;28;20029;-75
2023/09/27 07:46:33;;;;;;;1.23;1.00;;;;;;;;;;5074402;28;20086;-73
2023/09/27 07:48:59;;;;;;;0.88;0.82;;;;;;;;;;5074901;28;20183;-74
2023/09/27 07:51:25;;;;;;;1.30;0.93;;;;;;;;;;5074189;28;20478;-74
2023/09/27 07:53:53;;;;;;;1.38;0.98;;;;;;;;;;5074195;28;20098;-74
2023/09/27 07:56:21;;;;;;;1.48;1.13;;;20.80;72.10;;;;;;5074087;28;20021;-74
2023/09/27 07:58:51;;;;;;;1.52;1.02;;;;;;;;;;5074764;28;20048;-74
2023/09/27 08:01:20;;;;;;;;;;;21.30;67.10;;;;;;5074549;28;20136;-74
2023/09/27 08:03:53;;;;;;;2.83;1.30;;;21.10;72.30;;;;;;5074019;28;19916;-75
2023/09/27 08:06:20;;;;;;;2.42;0.93;;;;;;;;;;5074015;28;20024;-74
2023/09/27 08:08:47;;;;;;;0.90;0.73;;;;;;;;;;5074061;28;20051;-74
2023/09/27 08:11:13;;;;;;;1.08;0.98;;;;;;;;;;5073849;28;20024;-74
2023/09/27 08:13:39;;;;;;;2.33;1.45;;;;;;;;;;5073883;28;20115;-74
2023/09/27 08:16:07;;;;;;;2.03;1.05;;;;;;;;;;5074322;28;20024;-74
2023/09/27 08:18:33;;;;;;;2.55;1.17;;;;;;;;;;5073848;28;20312;-74
2023/09/27 08:21:00;;;;;;;1.52;0.90;;;;;;;;;;5073820;28;20024;-73
2023/09/27 08:23:26;;;;;;;1.50;0.98;;;;;;;;;;5073694;28;20028;-73
2023/09/27 08:25:52;;;;;;;1.10;1.00;;;21.10;70.00;;;;;;5073798;28;20090;-74
2023/09/27 08:28:21;;;;;;;1.10;1.00;;;21.10;72.50;;;;;;5073558;28;20025;-74
2023/09/27 08:30:47;;;;;;;1.45;1.10;;;;;;;;;;5073645;28;20047;-74
2023/09/27 08:33:13;;;;;;;1.13;0.90;;;;;;;;;;5073451;28;20351;-74
2023/09/27 08:35:40;;;;;;;2.70;1.05;;;;;;;;;;5073472;28;20020;-74
2023/09/27 08:38:06;;;;;;;1.13;0.90;;;;;;;;;;5073466;28;20486;-74
2023/09/27 08:40:32;;;;;;;0.95;0.82;;;;;;;;;;5073603;28;20382;-76
2023/09/27 08:42:59;;;;;;;1.05;0.82;;;;;;;;;;5055159;28;20032;-74
2023/09/27 08:45:26;;;;;;;1.20;0.90;;;21.20;72.90;;;;;;5073701;28;20028;-74
2023/09/27 08:47:54;;;;;;;1.20;0.98;;;21.30;72.90;;;;;;5055235;28;20390;-75
2023/09/27 08:50:20;;;;;;;2.88;1.17;;;;;;;;;;5073051;28;20099;-75
2023/09/27 08:52:47;;;;;;;1.20;1.10;;;21.30;72.30;;;;;;5072940;28;20241;-74
2023/09/27 08:55:14;;;;;;;1.38;0.82;;;;;;;;;;5073120;28;20382;-74
2023/09/27 08:57:45;;;;;;;1.00;0.80;;;21.50;73.40;;;;;;5073144;28;20166;-74
2023/09/27 09:00:13;;;;;;;1.67;0.90;;;;;;;;;;5073142;28;20020;-74
2023/09/27 09:02:43;;;;;;;1.10;0.90;;;21.30;73.40;;;;;;5072653;28;20059;-74
2023/09/27 09:05:11;;;;;;;1.42;1.00;;;21.30;73.30;;;;;;5072790;28;20454;-74
2023/09/27 09:07:41;;;;;;;1.25;1.00;;;21.40;73.40;;;;;;5072756;28;20094;-74
2023/09/27 09:10:13;;;;;;;1.65;1.00;;;21.30;73.50;;;;;;5072805;28;20379;-74
2023/09/27 09:12:47;;;;;;;0.98;0.88;;;21.30;73.40;;;;;;5072582;28;20047;-74
2023/09/27 09:15:30;;;;;;;1.60;1.20;;;21.30;73.60;;;;;;5072598;28;20047;-74
2023/09/27 09:17:59;;;;;;;1.95;1.20;;;;;;;;;;5072914;28;20025;-74
2023/09/27 09:20:32;;;;;;;1.25;0.90;;;;;;;;;;5072483;28;20081;-74
2023/09/27 09:23:03;;;;;;;1.20;0.85;;;;;;;;;;5072788;28;20391;-74
2023/09/27 09:25:32;;;;;;;1.00;0.80;;;;;;;;;;5072547;28;20039;-74
2023/09/27 09:28:13;;;;;;;3.10;0.77;;;21.40;68.20;;;;;;5072385;28;20066;-74
2023/09/27 09:30:40;;;;;;;0.90;0.90;;;21.40;73.60;;;;;;5072573;28;20028;-74
2023/09/27 09:33:36;;;;;;;1.05;0.95;;;21.40;67.90;;;;;;5072321;28;20395;-74
2023/09/27 09:36:02;;;;;;;1.80;1.20;;;;;;;;;;5072396;28;20043;-75
2023/09/27 09:38:30;;;;;;;1.15;0.90;;;21.40;73.70;;;;;;5072207;28;20054;-75
2023/09/27 09:41:00;;;;;;;1.42;0.80;;;21.40;67.80;;;;;;5072220;28;20037;-75
2023/09/27 09:43:37;;;;;;;0.70;0.70;;;21.70;68.20;;;;;;5072733;28;20083;-74
2023/09/27 09:46:06;;;;;;;1.45;0.90;;;21.50;73.60;;;;;;5072186;28;20032;-74
2023/09/27 09:48:33;;;;;;;1.17;0.90;;;21.50;72.80;;;;;;5054066;28;20016;-74
2023/09/27 09:51:06;;;;;;;2.05;1.33;;;21.50;68.00;;;;;;5071991;28;20384;-74
2023/09/27 09:53:40;;;;;;;2.25;1.00;;;21.50;71.20;;;;;;5071874;28;20044;-74
2023/09/27 09:56:07;;;;;;;1.10;1.00;;;21.60;73.60;;;;;;5072035;28;20032;-75
2023/09/27 09:58:46;;;;;;;1.15;0.90;;;21.60;73.40;;;;;;5071877;28;20055;-74
2023/09/27 10:01:18;;;;;;;1.23;0.85;;;21.60;73.40;;;;;;5071839;28;20028;-74
2023/09/27 10:03:47;;;;;;;1.67;0.93;;;21.70;73.40;;;;;;5071613;28;20045;-74
2023/09/27 10:06:17;;;;;;;3.07;1.23;;;21.70;73.40;;;;;;5071608;28;20021;-74
2023/09/27 10:08:44;;;;;;;1.85;0.90;;;;;;;;;;5071666;28;20761;-74
2023/09/27 10:11:10;;;;;;;2.83;1.20;;;;;;;;;;5072253;28;20017;-74
2023/09/27 10:13:39;;;;;;;0.80;0.77;;;21.80;73.10;;;;;;5053834;28;20045;-74
2023/09/27 10:16:07;;;;;;;1.20;0.90;;;21.90;71.40;;;;;;5053748;28;20070;-74
2023/09/27 10:18:37;;;;;;;0.95;0.80;;;21.80;72.90;;;;;;5053744;28;20029;-74
2023/09/27 10:21:03;;;;;;;;;;;22.00;73.70;;;;;;5054361;28;20033;-74
2023/09/27 10:23:46;;;;;;;1.30;0.95;;;21.90;67.10;;;;;;5071714;28;19911;-74
2023/09/27 10:26:36;;;;;;;1.73;0.82;;;21.90;67.20;;;;;;5071776;28;20032;-74
2023/09/27 10:31:31;;;;;;;0.80;0.70;;;21.90;73.60;;;;;;5071537;28;20108;-74
2023/09/27 10:33:57;;;;;;;3.03;1.05;;;;;;;;;;5053648;28;20496;-74
2023/09/27 10:36:24;;;;;;;0.77;0.75;;;;;;;;;;5053653;28;20506;-74
2023/09/27 10:38:50;;;;;;;1.27;1.08;;;;;;;;;;5072061;28;20039;-74
2023/09/27 10:41:42;;;;;;;1.20;1.00;;;21.90;73.40;;;;;;5071649;28;20047;-74
2023/09/27 10:44:08;;;;;;;2.22;0.90;;;;;;;;;;5060158;28;20132;-74
2023/09/27 10:46:45;;;;;;;0.85;0.85;;;22.00;67.60;;;;;;5053517;28;20110;-74
2023/09/27 10:49:12;;;;;;;1.80;1.10;;;;;;;;;;5053543;28;20040;-74
2023/09/27 10:51:38;;;;;;;0.98;0.88;;;;;;;;;;5053930;28;20079;-74
2023/09/27 10:54:10;;;;;;;1.05;0.95;;;22.30;67.40;;;;;;5053494;28;20407;-74
2023/09/27 10:56:37;;;;;;;1.08;0.90;;;;;;;;;;5054047;28;20505;-74
2023/09/27 10:59:04;;;;;;;2.17;1.25;;;22.30;72.90;;;;;;5053228;28;20060;-74
2023/09/27 11:01:31;;;;;;;0.98;0.93;;;;;;;;;;5053091;28;20390;-74
2023/09/27 11:04:02;;;;;;;1.90;1.17;;;22.50;67.00;;;;;;5053201;28;20573;-74
2023/09/27 11:06:29;;;;;;;1.67;1.27;;;22.60;72.40;;;;;;5053067;28;20517;-74
2023/09/27 11:09:08;;;;;;;1.42;1.00;;;22.70;66.30;;;;;;5053626;28;20025;-74
2023/09/27 11:11:47;;;;;;;1.23;0.90;;;22.90;71.50;;;;;;5053030;28;20483;-74
2023/09/27 11:14:28;;;;;;;1.30;1.20;;;23.00;71.40;;;;;;5055051;28;20047;-74
2023/09/27 11:16:54;;;;;;;1.13;1.00;;;;;;;;;;5054116;28;20082;-74
2023/09/27 11:19:28;;;;;;;1.88;0.90;;;23.20;65.40;;;;;;5057100;28;20037;-74
2023/09/27 11:21:55;;;;;;;1.33;0.95;;;;;;;;;;5056981;28;20025;-75
2023/09/27 11:24:21;;;;;;;1.17;1.00;;;;;;;;;;5057434;28;20035;-76
2023/09/27 11:26:48;;;;;;;2.38;1.20;;;;;;;;;;5075207;28;20466;-75
2023/09/27 11:29:15;;;;;;;2.15;1.25;;;;;;;;;;5056918;28;20020;-75
2023/09/27 11:31:41;;;;;;;1.30;1.20;;;;;;;;;;5074783;28;20045;-75
2023/09/27 11:34:15;;;;;;;2.08;1.40;;;23.80;63.80;;;;;;5056814;28;20054;-75
2023/09/27 11:36:41;;;;;;;1.33;1.10;;;23.90;68.60;;;;;;5075437;28;20029;-75
2023/09/27 11:39:08;;;;;;;1.15;0.90;;;;;;;;;;5074710;28;20402;-76
2023/09/27 11:41:35;;;;;;;1.73;1.08;;;;;;;;;;5057113;28;20040;-76
2023/09/27 11:44:15;;;;;;;0.80;0.80;;;23.90;69.80;;;;;;5056962;28;20119;-75
2023/09/27 11:46:42;;;;;;;0.82;0.82;;;;;;;;;;5056981;28;20112;-75
2023/09/27 11:49:09;;;;;;;1.02;0.93;;;;;;;;;;5074681;28;20053;-76
2023/09/27 11:51:36;;;;;;;1.10;0.88;;;24.10;68.30;;;;;;5056928;28;20028;-75
2023/09/27 11:54:05;;;;;;;1.38;0.90;;;24.20;67.80;;;;;;5056642;28;20033;-75
2023/09/27 11:56:32;;;;;;;1.40;0.90;;;;;;;;;;5056730;28;20073;-75
2023/09/27 11:58:59;;;;;;;1.90;0.75;;;;;;;;;;5056480;28;20470;-76
2023/09/27 12:01:25;;;;;;;1.25;1.10;;;;;;;;;;5056214;28;20044;-75
2023/09/27 12:03:52;;;;;;;0.82;0.80;;;;;;;;;;5056863;28;20057;-74
2023/09/27 12:06:18;;;;;;;0.98;0.82;;;;;;;;;;5073933;28;20044;-74
2023/09/27 12:08:45;;;;;;;0.70;0.70;;;;;;;;;;5056206;28;20056;-74
2023/09/27 12:11:12;;;;;;;1.05;1.00;;;;;;;;;;5056424;28;20033;-74
2023/09/27 12:13:40;;;;;;;1.73;0.63;;;24.70;68.90;;;;;;5056391;28;20414;-74
2023/09/27 12:16:07;;;;;;;1.08;0.98;;;;;;;;;;5056423;28;20032;-74
2023/09/27 12:18:33;;;;;;;1.67;1.15;;;;;;;;;;5056469;28;20103;-74
2023/09/27 12:21:00;;;;;;;0.90;0.90;;;;;;;;;;5056318;28;20032;-74
2023/09/27 12:23:27;;;;;;;1.40;1.00;;;;;;;;;;5056358;28;20116;-74
2023/09/27 12:25:53;;;;;;;1.25;0.90;;;;;;;;;;5056406;28;20032;-74
2023/09/27 12:28:20;;;;;;;0.88;0.88;;;;;;;;;;5055713;28;20056;-74
2023/09/27 12:30:47;;;;;;;1.20;1.10;;;;;;;;;;5056067;28;20025;-74
2023/09/27 12:33:13;;;;;;;0.95;0.70;;;;;;;;;;5056448;28;20051;-74
2023/09/27 12:35:40;;;;;;;1.08;0.98;;;;;;;;;;5056086;28;20039;-74
2023/09/27 12:38:07;;;;;;;0.73;0.73;;;;;;;;;;5055659;28;20034;-74
2023/09/27 12:40:34;;;;;;;0.90;0.90;;;25.00;68.40;;;;;;5055647;28;20029;-74
2023/09/27 12:43:01;;;;;;;1.48;0.80;;;24.90;69.40;;;;;;5055905;28;20487;-74
2023/09/27 12:45:28;;;;;;;1.02;0.70;;;;;;;;;;5055574;28;20037;-74
2023/09/27 12:47:55;;;;;;;0.73;0.57;;;;;;;;;;5055879;28;20037;-74
2023/09/27 12:50:26;;;;;;;0.95;0.70;;;;;;;;;;5055633;28;20021;-74
2023/09/27 12:52:56;;;;;;;1.00;0.90;;;24.80;64.60;;;;;;5056455;28;20044;-74
2023/09/27 12:55:23;;;;;;;1.00;1.00;;;;;;;;;;5055499;28;20040;-74
2023/09/27 12:57:50;;;;;;;1.35;0.85;;;;;;;;;;5055444;28;20029;-74
2023/09/27 13:00:20;;;;;;;1.20;0.88;;;24.90;64.50;;;;;;5055440;28;20039;-74
2023/09/27 13:02:47;;;;;;;0.88;0.65;;;;;;;;;;5051889;28;20511;-74
2023/09/27 13:05:13;;;;;;;0.80;0.80;;;;;;;;;;5052023;28;20503;-74
2023/09/27 13:07:40;;;;;;;1.17;1.00;;;25.10;69.90;;;;;;5052794;28;20504;-74
2023/09/27 13:10:07;;;;;;;1.17;0.88;;;;;;;;;;5035194;28;20104;-74
2023/09/27 13:12:33;;;;;;;2.83;1.00;;;;;;;;;;5051610;28;20456;-74
2023/09/27 13:15:00;;;;;;;0.98;0.93;;;;;;;;;;5052870;28;20033;-73
2023/09/27 13:17:27;;;;;;;1.00;0.90;;;;;;;;;;5053083;28;20063;-74
2023/09/27 13:19:53;;;;;;;1.50;0.90;;;;;;;;;;5053105;28;20445;-73
2023/09/27 13:22:20;;;;;;;1.20;1.00;;;25.30;65.90;;;;;;5052965;28;20082;-74
2023/09/27 13:24:47;;;;;;;1.35;1.02;;;;;;;;;;5053004;28;20094;-74
2023/09/27 13:27:14;;;;;;;1.00;0.90;;;;;;;;;;5052695;28;20550;-74
2023/09/27 13:29:42;;;;;;;0.90;0.90;;;;;;;;;;5053267;28;20052;-74
2023/09/27 13:32:09;;;;;;;6.18;1.10;;;;;;;;;;5052817;28;20040;-74
2023/09/27 13:34:36;;;;;;;0.75;0.60;;;;;;;;;;5052444;28;20056;-78
2023/09/27 13:37:02;;;;;;;0.70;0.70;;;;;;;;;;5052455;28;20476;-75
2023/09/27 13:39:29;;;;;;;1.00;1.00;;;;;;;;;;5051472;28;20025;-74
2023/09/27 13:41:56;;;;;;;1.15;1.00;;;;;;;;;;5052532;28;20464;-75
2023/09/27 13:44:22;;;;;;;0.80;0.80;;;;;;;;;;5052298;28;20079;-76
2023/09/27 13:46:49;;;;;;;0.95;0.75;;;;;;;;;;5052149;28;20060;-76
2023/09/27 13:49:15;;;;;;;0.80;0.70;;;;;;;;;;5052209;28;20041;-74
2023/09/27 13:51:41;;;;;;;0.93;0.93;;;;;;;;;;5052025;28;20048;-75
2023/09/27 13:54:08;;;;;;;1.20;0.90;;;;;;;;;;5052019;28;20471;-76
2023/09/27 13:56:34;;;;;;;1.30;1.02;;;25.80;65.90;;;;;;5052051;28;20028;-75
2023/09/27 13:59:00;;;;;;;2.13;0.80;;;;;;;;;;5052140;28;20115;-75
2023/09/27 14:01:26;;;;;;;2.63;0.98;;;;;;;;;;5052039;28;20126;-75
2023/09/27 14:03:53;;;;;;;0.95;0.88;;;;;;;;;;5069722;28;20189;-75
2023/09/27 14:06:19;;;;;;;0.80;0.80;;;25.10;68.60;;;;;;5071922;28;20028;-75
2023/09/27 14:08:47;;;;;;;0.80;0.70;;;;;;;;;;5071918;28;20036;-75
2023/09/27 14:11:13;;;;;;;0.75;0.70;;;;;;;;;;5072123;28;20070;-75
2023/09/27 14:13:40;;;;;;;0.80;0.80;;;;;;;;;;5072013;28;20101;-75
2023/09/27 14:16:07;;;;;;;0.70;0.70;;;;;;;;;;5072281;28;20107;-75
2023/09/27 14:18:33;;;;;;;0.80;0.80;;;;;;;;;;5071970;28;20447;-77